sensor_id;sensor_type;location;lat;lon;timestamp;P1;durP1;ratioP1;P2;durP2;ratioP2
21215;SDS011;10765;50.954;5.322;2023-09-19T00:00:55;7.53;;;2.70;;
21215;SDS011;10765;50.954;5.322;2023-09-19T00:03:23;10.20;;;2.73;;
21215;SDS011;10765;50.954;5.322;2023-09-19T00:05:52;5.53;;;2.47;;
21215;SDS011;10765;50.954;5.322;2023-09-19T00:08:20;11.40;;;2.77;;
21215;SDS011;10765;50.954;5.322;2023-09-19T00:10:50;7.87;;;2.47;;
21215;SDS011;10765;50.954;5.322;2023-09-19T00:13:18;10.53;;;2.87;;
21215;SDS011;10765;50.954;5.322;2023-09-19T00:15:47;6.33;;;2.40;;
21215;SDS011;10765;50.954;5.322;2023-09-19T00:18:14;9.77;;;2.80;;
21215;SDS011;10765;50.954;5.322;2023-09-19T00:20:42;12.43;;;3.30;;
21215;SDS011;10765;50.954;5.322;2023-09-19T00:23:14;10.47;;;2.70;;
21215;SDS011;10765;50.954;5.322;2023-09-19T00:25:41;8.40;;;2.80;;
21215;SDS011;10765;50.954;5.322;2023-09-19T00:28:08;8.43;;;2.73;;
21215;SDS011;10765;50.954;5.322;2023-09-19T00:30:35;8.80;;;2.80;;
21215;SDS011;10765;50.954;5.322;2023-09-19T00:33:03;7.67;;;2.43;;
21215;SDS011;10765;50.954;5.322;2023-09-19T00:35:32;7.97;;;2.40;;
21215;SDS011;10765;50.954;5.322;2023-09-19T00:38:00;6.77;;;2.53;;
21215;SDS011;10765;50.954;5.322;2023-09-19T00:40:28;9.23;;;3.00;;
21215;SDS011;10765;50.954;5.322;2023-09-19T00:42:57;11.03;;;2.67;;
21215;SDS011;10765;50.954;5.322;2023-09-19T00:45:25;7.03;;;2.30;;
21215;SDS011;10765;50.954;5.322;2023-09-19T00:47:53;12.40;;;2.97;;
21215;SDS011;10765;50.954;5.322;2023-09-19T00:50:22;7.43;;;2.70;;
21215;SDS011;10765;50.954;5.322;2023-09-19T00:52:52;8.57;;;2.80;;
21215;SDS011;10765;50.954;5.322;2023-09-19T00:55:22;8.40;;;2.63;;
21215;SDS011;10765;50.954;5.322;2023-09-19T00:57:52;9.20;;;2.80;;
21215;SDS011;10765;50.954;5.322;2023-09-19T01:00:21;10.10;;;2.50;;
21215;SDS011;10765;50.954;5.322;2023-09-19T01:02:49;6.20;;;2.43;;
21215;SDS011;10765;50.954;5.322;2023-09-19T01:05:16;8.47;;;2.70;;
21215;SDS011;10765;50.954;5.322;2023-09-19T01:07:43;11.77;;;2.90;;
21215;SDS011;10765;50.954;5.322;2023-09-19T01:10:11;11.63;;;2.50;;
21215;SDS011;10765;50.954;5.322;2023-09-19T01:12:45;7.67;;;2.43;;
21215;SDS011;10765;50.954;5.322;2023-09-19T01:15:24;8.07;;;2.60;;
21215;SDS011;10765;50.954;5.322;2023-09-19T01:18:00;11.17;;;2.70;;
21215;SDS011;10765;50.954;5.322;2023-09-19T01:20:37;7.37;;;2.30;;
21215;SDS011;10765;50.954;5.322;2023-09-19T01:23:14;10.17;;;2.57;;
21215;SDS011;10765;50.954;5.322;2023-09-19T01:29:01;8.17;;;2.60;;
21215;SDS011;10765;50.954;5.322;2023-09-19T01:31:40;10.83;;;2.80;;
21215;SDS011;10765;50.954;5.322;2023-09-19T01:34:09;11.07;;;2.40;;
21215;SDS011;10765;50.954;5.322;2023-09-19T01:36:36;6.73;;;2.40;;
21215;SDS011;10765;50.954;5.322;2023-09-19T01:39:04;10.37;;;2.60;;
21215;SDS011;10765;50.954;5.322;2023-09-19T01:41:39;5.87;;;2.37;;
21215;SDS011;10765;50.954;5.322;2023-09-19T01:44:15;11.53;;;2.47;;
21215;SDS011;10765;50.954;5.322;2023-09-19T01:46:49;9.10;;;2.17;;
21215;SDS011;10765;50.954;5.322;2023-09-19T01:49:20;10.07;;;2.60;;
21215;SDS011;10765;50.954;5.322;2023-09-19T01:51:56;7.70;;;2.10;;
21215;SDS011;10765;50.954;5.322;2023-09-19T01:54:31;8.13;;;2.70;;
21215;SDS011;10765;50.954;5.322;2023-09-19T01:57:04;9.23;;;2.67;;
21215;SDS011;10765;50.954;5.322;2023-09-19T01:59:37;8.30;;;2.43;;
21215;SDS011;10765;50.954;5.322;2023-09-19T02:02:10;11.80;;;2.77;;
21215;SDS011;10765;50.954;5.322;2023-09-19T02:04:40;9.30;;;2.73;;
21215;SDS011;10765;50.954;5.322;2023-09-19T02:07:07;8.60;;;2.80;;
21215;SDS011;10765;50.954;5.322;2023-09-19T02:09:34;8.10;;;2.53;;
21215;SDS011;10765;50.954;5.322;2023-09-19T02:12:04;9.20;;;2.37;;
21215;SDS011;10765;50.954;5.322;2023-09-19T02:14:32;9.67;;;2.60;;
21215;SDS011;10765;50.954;5.322;2023-09-19T02:16:59;9.00;;;2.43;;
21215;SDS011;10765;50.954;5.322;2023-09-19T02:19:27;9.13;;;2.80;;
21215;SDS011;10765;50.954;5.322;2023-09-19T02:21:54;12.77;;;3.30;;
21215;SDS011;10765;50.954;5.322;2023-09-19T02:24:20;12.87;;;3.23;;
21215;SDS011;10765;50.954;5.322;2023-09-19T02:26:52;10.57;;;2.97;;
21215;SDS011;10765;50.954;5.322;2023-09-19T02:29:19;7.97;;;2.73;;
21215;SDS011;10765;50.954;5.322;2023-09-19T02:31:47;15.53;;;3.30;;
21215;SDS011;10765;50.954;5.322;2023-09-19T02:34:14;8.00;;;2.80;;
21215;SDS011;10765;50.954;5.322;2023-09-19T02:36:43;15.73;;;2.93;;
21215;SDS011;10765;50.954;5.322;2023-09-19T02:39:11;8.97;;;2.77;;
21215;SDS011;10765;50.954;5.322;2023-09-19T02:41:38;11.23;;;2.77;;
21215;SDS011;10765;50.954;5.322;2023-09-19T02:44:06;8.60;;;2.80;;
21215;SDS011;10765;50.954;5.322;2023-09-19T02:46:33;11.13;;;2.60;;
21215;SDS011;10765;50.954;5.322;2023-09-19T02:49:02;8.53;;;2.43;;
21215;SDS011;10765;50.954;5.322;2023-09-19T02:51:30;11.03;;;3.33;;
21215;SDS011;10765;50.954;5.322;2023-09-19T02:53:58;8.13;;;2.90;;
21215;SDS011;10765;50.954;5.322;2023-09-19T02:56:25;9.67;;;2.70;;
21215;SDS011;10765;50.954;5.322;2023-09-19T02:58:52;12.03;;;2.70;;
21215;SDS011;10765;50.954;5.322;2023-09-19T03:01:20;11.73;;;3.17;;
21215;SDS011;10765;50.954;5.322;2023-09-19T03:03:47;11.60;;;3.10;;
21215;SDS011;10765;50.954;5.322;2023-09-19T03:06:14;12.70;;;3.07;;
21215;SDS011;10765;50.954;5.322;2023-09-19T03:08:42;10.30;;;2.33;;
21215;SDS011;10765;50.954;5.322;2023-09-19T03:11:11;11.37;;;3.13;;
21215;SDS011;10765;50.954;5.322;2023-09-19T03:13:40;7.33;;;2.90;;
21215;SDS011;10765;50.954;5.322;2023-09-19T03:16:07;8.13;;;2.50;;
21215;SDS011;10765;50.954;5.322;2023-09-19T03:18:34;9.33;;;2.63;;
21215;SDS011;10765;50.954;5.322;2023-09-19T03:21:01;10.57;;;2.90;;
21215;SDS011;10765;50.954;5.322;2023-09-19T03:23:29;7.63;;;2.60;;
21215;SDS011;10765;50.954;5.322;2023-09-19T03:25:56;10.17;;;2.93;;
21215;SDS011;10765;50.954;5.322;2023-09-19T03:28:25;6.97;;;2.57;;
21215;SDS011;10765;50.954;5.322;2023-09-19T03:30:59;6.77;;;2.10;;
21215;SDS011;10765;50.954;5.322;2023-09-19T03:33:26;7.77;;;2.63;;
21215;SDS011;10765;50.954;5.322;2023-09-19T03:35:56;10.97;;;3.10;;
21215;SDS011;10765;50.954;5.322;2023-09-19T03:38:24;11.20;;;2.60;;
21215;SDS011;10765;50.954;5.322;2023-09-19T03:40:51;9.70;;;2.80;;
21215;SDS011;10765;50.954;5.322;2023-09-19T03:43:18;7.90;;;2.67;;
21215;SDS011;10765;50.954;5.322;2023-09-19T03:45:46;9.43;;;2.40;;
21215;SDS011;10765;50.954;5.322;2023-09-19T03:48:14;10.40;;;2.50;;
21215;SDS011;10765;50.954;5.322;2023-09-19T03:50:41;11.97;;;2.67;;
21215;SDS011;10765;50.954;5.322;2023-09-19T03:53:09;12.33;;;2.77;;
21215;SDS011;10765;50.954;5.322;2023-09-19T03:55:36;11.77;;;3.00;;
21215;SDS011;10765;50.954;5.322;2023-09-19T03:58:03;11.10;;;2.57;;
21215;SDS011;10765;50.954;5.322;2023-09-19T04:00:30;9.07;;;2.87;;
21215;SDS011;10765;50.954;5.322;2023-09-19T04:03:00;9.30;;;2.70;;
21215;SDS011;10765;50.954;5.322;2023-09-19T04:05:31;9.53;;;2.60;;
21215;SDS011;10765;50.954;5.322;2023-09-19T04:07:58;10.90;;;2.63;;
21215;SDS011;10765;50.954;5.322;2023-09-19T04:10:24;9.20;;;2.90;;
21215;SDS011;10765;50.954;5.322;2023-09-19T04:12:51;7.10;;;2.53;;
21215;SDS011;10765;50.954;5.322;2023-09-19T04:15:19;11.20;;;2.60;;
21215;SDS011;10765;50.954;5.322;2023-09-19T04:17:48;11.10;;;2.40;;
21215;SDS011;10765;50.954;5.322;2023-09-19T04:20:16;7.90;;;2.90;;
21215;SDS011;10765;50.954;5.322;2023-09-19T04:22:44;11.57;;;2.83;;
21215;SDS011;10765;50.954;5.322;2023-09-19T04:25:12;8.13;;;2.30;;
21215;SDS011;10765;50.954;5.322;2023-09-19T04:27:39;7.50;;;2.30;;
21215;SDS011;10765;50.954;5.322;2023-09-19T04:30:07;8.50;;;2.67;;
21215;SDS011;10765;50.954;5.322;2023-09-19T04:32:38;10.63;;;2.83;;
21215;SDS011;10765;50.954;5.322;2023-09-19T04:35:06;8.93;;;2.60;;
21215;SDS011;10765;50.954;5.322;2023-09-19T04:37:36;9.57;;;2.97;;
21215;SDS011;10765;50.954;5.322;2023-09-19T04:40:05;7.40;;;2.50;;
21215;SDS011;10765;50.954;5.322;2023-09-19T04:42:37;8.00;;;2.40;;
21215;SDS011;10765;50.954;5.322;2023-09-19T04:45:05;8.30;;;2.53;;
21215;SDS011;10765;50.954;5.322;2023-09-19T04:47:34;8.80;;;2.97;;
21215;SDS011;10765;50.954;5.322;2023-09-19T04:50:05;11.57;;;2.80;;
21215;SDS011;10765;50.954;5.322;2023-09-19T04:52:39;11.60;;;2.80;;
21215;SDS011;10765;50.954;5.322;2023-09-19T04:55:09;10.80;;;2.80;;
21215;SDS011;10765;50.954;5.322;2023-09-19T04:57:38;6.23;;;2.27;;
21215;SDS011;10765;50.954;5.322;2023-09-19T05:00:06;8.80;;;3.03;;
21215;SDS011;10765;50.954;5.322;2023-09-19T05:02:37;9.43;;;2.53;;
21215;SDS011;10765;50.954;5.322;2023-09-19T05:05:06;9.37;;;3.07;;
21215;SDS011;10765;50.954;5.322;2023-09-19T05:07:33;8.37;;;2.60;;
21215;SDS011;10765;50.954;5.322;2023-09-19T05:10:02;11.63;;;3.20;;
21215;SDS011;10765;50.954;5.322;2023-09-19T05:12:32;12.73;;;2.97;;
21215;SDS011;10765;50.954;5.322;2023-09-19T05:15:00;11.90;;;2.80;;
21215;SDS011;10765;50.954;5.322;2023-09-19T05:17:28;8.30;;;2.23;;
21215;SDS011;10765;50.954;5.322;2023-09-19T05:19:55;8.57;;;2.80;;
21215;SDS011;10765;50.954;5.322;2023-09-19T05:22:23;8.50;;;2.47;;
21215;SDS011;10765;50.954;5.322;2023-09-19T05:24:50;9.20;;;2.50;;
21215;SDS011;10765;50.954;5.322;2023-09-19T05:27:19;11.53;;;2.77;;
21215;SDS011;10765;50.954;5.322;2023-09-19T05:29:46;14.10;;;2.73;;
21215;SDS011;10765;50.954;5.322;2023-09-19T05:32:14;9.63;;;2.83;;
21215;SDS011;10765;50.954;5.322;2023-09-19T05:34:41;8.27;;;2.13;;
21215;SDS011;10765;50.954;5.322;2023-09-19T05:37:08;10.10;;;2.87;;
21215;SDS011;10765;50.954;5.322;2023-09-19T05:39:34;9.00;;;2.60;;
21215;SDS011;10765;50.954;5.322;2023-09-19T05:42:02;8.47;;;2.63;;
21215;SDS011;10765;50.954;5.322;2023-09-19T05:44:31;9.47;;;2.67;;
21215;SDS011;10765;50.954;5.322;2023-09-19T05:46:58;6.97;;;2.47;;
21215;SDS011;10765;50.954;5.322;2023-09-19T05:49:25;8.13;;;2.43;;
21215;SDS011;10765;50.954;5.322;2023-09-19T05:51:52;7.70;;;2.30;;
21215;SDS011;10765;50.954;5.322;2023-09-19T05:54:21;8.10;;;2.53;;
21215;SDS011;10765;50.954;5.322;2023-09-19T05:56:48;8.67;;;2.90;;
21215;SDS011;10765;50.954;5.322;2023-09-19T05:59:18;11.27;;;2.97;;
21215;SDS011;10765;50.954;5.322;2023-09-19T06:01:46;10.77;;;3.10;;
21215;SDS011;10765;50.954;5.322;2023-09-19T06:04:13;8.40;;;2.30;;
21215;SDS011;10765;50.954;5.322;2023-09-19T06:06:40;7.87;;;2.43;;
21215;SDS011;10765;50.954;5.322;2023-09-19T06:09:07;9.00;;;2.57;;
21215;SDS011;10765;50.954;5.322;2023-09-19T06:11:34;8.53;;;2.60;;
21215;SDS011;10765;50.954;5.322;2023-09-19T06:14:01;8.93;;;2.77;;
21215;SDS011;10765;50.954;5.322;2023-09-19T06:16:28;8.10;;;2.40;;
21215;SDS011;10765;50.954;5.322;2023-09-19T06:18:58;10.17;;;2.50;;
21215;SDS011;10765;50.954;5.322;2023-09-19T06:21:26;8.17;;;2.77;;
21215;SDS011;10765;50.954;5.322;2023-09-19T06:23:53;8.27;;;2.57;;
21215;SDS011;10765;50.954;5.322;2023-09-19T06:26:20;10.37;;;2.83;;
21215;SDS011;10765;50.954;5.322;2023-09-19T06:28:48;7.23;;;2.57;;
21215;SDS011;10765;50.954;5.322;2023-09-19T06:31:15;7.03;;;2.53;;
21215;SDS011;10765;50.954;5.322;2023-09-19T06:33:42;6.37;;;2.53;;
21215;SDS011;10765;50.954;5.322;2023-09-19T06:36:10;9.33;;;2.77;;
21215;SDS011;10765;50.954;5.322;2023-09-19T06:38:37;7.97;;;2.40;;
21215;SDS011;10765;50.954;5.322;2023-09-19T06:41:04;10.03;;;2.40;;
21215;SDS011;10765;50.954;5.322;2023-09-19T06:43:32;8.43;;;2.77;;
21215;SDS011;10765;50.954;5.322;2023-09-19T06:45:59;9.53;;;2.90;;
21215;SDS011;10765;50.954;5.322;2023-09-19T06:48:26;9.33;;;2.57;;
21215;SDS011;10765;50.954;5.322;2023-09-19T06:50:54;7.73;;;2.60;;
21215;SDS011;10765;50.954;5.322;2023-09-19T06:53:25;10.10;;;2.80;;
21215;SDS011;10765;50.954;5.322;2023-09-19T06:55:52;6.10;;;2.30;;
21215;SDS011;10765;50.954;5.322;2023-09-19T06:58:19;5.40;;;2.33;;
21215;SDS011;10765;50.954;5.322;2023-09-19T07:00:46;10.13;;;2.93;;
21215;SDS011;10765;50.954;5.322;2023-09-19T07:03:15;9.77;;;2.50;;
21215;SDS011;10765;50.954;5.322;2023-09-19T07:05:43;8.53;;;2.30;;
21215;SDS011;10765;50.954;5.322;2023-09-19T07:08:10;7.33;;;2.40;;
21215;SDS011;10765;50.954;5.322;2023-09-19T07:10:39;8.37;;;2.50;;
21215;SDS011;10765;50.954;5.322;2023-09-19T07:13:07;8.87;;;2.50;;
21215;SDS011;10765;50.954;5.322;2023-09-19T07:15:37;6.47;;;2.13;;
21215;SDS011;10765;50.954;5.322;2023-09-19T07:18:11;9.27;;;2.47;;
21215;SDS011;10765;50.954;5.322;2023-09-19T07:20:40;7.17;;;2.10;;
21215;SDS011;10765;50.954;5.322;2023-09-19T07:23:10;7.90;;;2.67;;
21215;SDS011;10765;50.954;5.322;2023-09-19T07:25:40;11.27;;;2.60;;
21215;SDS011;10765;50.954;5.322;2023-09-19T07:28:07;9.33;;;2.33;;
21215;SDS011;10765;50.954;5.322;2023-09-19T07:30:35;9.43;;;2.93;;
21215;SDS011;10765;50.954;5.322;2023-09-19T07:33:04;7.17;;;2.60;;
21215;SDS011;10765;50.954;5.322;2023-09-19T07:35:31;7.97;;;2.10;;
21215;SDS011;10765;50.954;5.322;2023-09-19T07:37:58;6.40;;;2.60;;
21215;SDS011;10765;50.954;5.322;2023-09-19T07:40:26;5.93;;;2.37;;
21215;SDS011;10765;50.954;5.322;2023-09-19T07:42:55;6.73;;;2.27;;
21215;SDS011;10765;50.954;5.322;2023-09-19T07:45:22;8.30;;;2.37;;
21215;SDS011;10765;50.954;5.322;2023-09-19T07:47:50;7.80;;;2.10;;
21215;SDS011;10765;50.954;5.322;2023-09-19T07:50:18;6.33;;;2.00;;
21215;SDS011;10765;50.954;5.322;2023-09-19T07:52:45;9.50;;;3.10;;
21215;SDS011;10765;50.954;5.322;2023-09-19T07:55:12;5.83;;;1.97;;
21215;SDS011;10765;50.954;5.322;2023-09-19T07:57:41;10.77;;;2.20;;
21215;SDS011;10765;50.954;5.322;2023-09-19T08:00:10;8.23;;;2.50;;
21215;SDS011;10765;50.954;5.322;2023-09-19T08:02:38;6.90;;;2.50;;
21215;SDS011;10765;50.954;5.322;2023-09-19T08:05:07;6.43;;;2.17;;
21215;SDS011;10765;50.954;5.322;2023-09-19T08:07:36;7.97;;;2.43;;
21215;SDS011;10765;50.954;5.322;2023-09-19T08:10:03;5.33;;;2.10;;
21215;SDS011;10765;50.954;5.322;2023-09-19T08:12:32;6.17;;;2.00;;
21215;SDS011;10765;50.954;5.322;2023-09-19T08:15:01;9.53;;;2.30;;
21215;SDS011;10765;50.954;5.322;2023-09-19T08:17:31;8.50;;;2.60;;
21215;SDS011;10765;50.954;5.322;2023-09-19T08:20:00;7.73;;;2.10;;
21215;SDS011;10765;50.954;5.322;2023-09-19T08:22:30;8.87;;;2.33;;
21215;SDS011;10765;50.954;5.322;2023-09-19T08:24:57;4.23;;;2.10;;
21215;SDS011;10765;50.954;5.322;2023-09-19T08:27:24;10.03;;;2.60;;
21215;SDS011;10765;50.954;5.322;2023-09-19T08:29:52;8.50;;;2.50;;
21215;SDS011;10765;50.954;5.322;2023-09-19T08:32:19;6.93;;;2.20;;
21215;SDS011;10765;50.954;5.322;2023-09-19T08:34:50;5.77;;;1.90;;
21215;SDS011;10765;50.954;5.322;2023-09-19T08:37:17;6.60;;;2.30;;
21215;SDS011;10765;50.954;5.322;2023-09-19T08:39:44;5.20;;;2.10;;
21215;SDS011;10765;50.954;5.322;2023-09-19T08:42:11;7.97;;;2.00;;
21215;SDS011;10765;50.954;5.322;2023-09-19T08:44:38;8.33;;;2.33;;
21215;SDS011;10765;50.954;5.322;2023-09-19T08:47:09;8.77;;;2.23;;
21215;SDS011;10765;50.954;5.322;2023-09-19T08:49:39;6.63;;;2.53;;
21215;SDS011;10765;50.954;5.322;2023-09-19T08:52:19;7.83;;;2.40;;
21215;SDS011;10765;50.954;5.322;2023-09-19T08:54:51;7.47;;;2.37;;
21215;SDS011;10765;50.954;5.322;2023-09-19T08:57:20;4.43;;;1.90;;
21215;SDS011;10765;50.954;5.322;2023-09-19T08:59:48;7.67;;;4.37;;
21215;SDS011;10765;50.954;5.322;2023-09-19T09:02:16;7.10;;;2.33;;
21215;SDS011;10765;50.954;5.322;2023-09-19T09:04:44;7.33;;;2.03;;
21215;SDS011;10765;50.954;5.322;2023-09-19T09:07:13;5.33;;;2.20;;
21215;SDS011;10765;50.954;5.322;2023-09-19T09:09:43;7.40;;;2.07;;
21215;SDS011;10765;50.954;5.322;2023-09-19T09:12:11;6.83;;;2.47;;
21215;SDS011;10765;50.954;5.322;2023-09-19T09:14:39;7.03;;;2.70;;
21215;SDS011;10765;50.954;5.322;2023-09-19T09:17:06;7.53;;;2.30;;
21215;SDS011;10765;50.954;5.322;2023-09-19T09:19:33;7.63;;;2.63;;
21215;SDS011;10765;50.954;5.322;2023-09-19T09:22:07;6.27;;;2.27;;
21215;SDS011;10765;50.954;5.322;2023-09-19T09:24:35;7.23;;;2.50;;
21215;SDS011;10765;50.954;5.322;2023-09-19T09:27:06;7.47;;;2.60;;
21215;SDS011;10765;50.954;5.322;2023-09-19T09:29:42;5.17;;;2.33;;
21215;SDS011;10765;50.954;5.322;2023-09-19T09:32:22;5.77;;;2.43;;
21215;SDS011;10765;50.954;5.322;2023-09-19T09:34:50;9.57;;;2.60;;
21215;SDS011;10765;50.954;5.322;2023-09-19T09:37:19;5.40;;;2.40;;
21215;SDS011;10765;50.954;5.322;2023-09-19T09:39:50;4.90;;;2.20;;
21215;SDS011;10765;50.954;5.322;2023-09-19T09:45:14;6.73;;;2.30;;
21215;SDS011;10765;50.954;5.322;2023-09-19T09:47:46;6.37;;;2.57;;
21215;SDS011;10765;50.954;5.322;2023-09-19T09:50:26;7.30;;;2.67;;
21215;SDS011;10765;50.954;5.322;2023-09-19T09:53:22;6.27;;;2.50;;
21215;SDS011;10765;50.954;5.322;2023-09-19T09:56:02;9.23;;;2.37;;
21215;SDS011;10765;50.954;5.322;2023-09-19T09:58:36;7.40;;;2.50;;
21215;SDS011;10765;50.954;5.322;2023-09-19T10:01:05;6.47;;;2.37;;
21215;SDS011;10765;50.954;5.322;2023-09-19T10:03:36;7.20;;;2.60;;
21215;SDS011;10765;50.954;5.322;2023-09-19T10:06:07;6.33;;;2.30;;
21215;SDS011;10765;50.954;5.322;2023-09-19T10:08:58;7.40;;;2.57;;
21215;SDS011;10765;50.954;5.322;2023-09-19T10:11:30;7.97;;;2.47;;
21215;SDS011;10765;50.954;5.322;2023-09-19T10:13:59;9.60;;;2.90;;
21215;SDS011;10765;50.954;5.322;2023-09-19T10:16:28;6.53;;;2.40;;
21215;SDS011;10765;50.954;5.322;2023-09-19T10:18:57;5.40;;;2.20;;
21215;SDS011;10765;50.954;5.322;2023-09-19T10:21:28;9.73;;;2.50;;
21215;SDS011;10765;50.954;5.322;2023-09-19T10:23:55;7.27;;;2.80;;
21215;SDS011;10765;50.954;5.322;2023-09-19T10:26:25;6.30;;;2.40;;
21215;SDS011;10765;50.954;5.322;2023-09-19T10:28:56;7.30;;;2.53;;
21215;SDS011;10765;50.954;5.322;2023-09-19T10:31:26;5.10;;;2.47;;
21215;SDS011;10765;50.954;5.322;2023-09-19T10:33:54;5.57;;;2.27;;
21215;SDS011;10765;50.954;5.322;2023-09-19T10:36:23;5.30;;;2.03;;
21215;SDS011;10765;50.954;5.322;2023-09-19T10:38:52;9.07;;;2.70;;
21215;SDS011;10765;50.954;5.322;2023-09-19T10:41:21;5.37;;;2.13;;
21215;SDS011;10765;50.954;5.322;2023-09-19T10:43:49;5.30;;;2.10;;
21215;SDS011;10765;50.954;5.322;2023-09-19T10:46:20;6.97;;;2.40;;
21215;SDS011;10765;50.954;5.322;2023-09-19T10:48:47;4.67;;;2.37;;
21215;SDS011;10765;50.954;5.322;2023-09-19T10:51:19;4.77;;;2.33;;
21215;SDS011;10765;50.954;5.322;2023-09-19T10:53:50;5.20;;;2.00;;
21215;SDS011;10765;50.954;5.322;2023-09-19T10:56:21;6.13;;;1.90;;
21215;SDS011;10765;50.954;5.322;2023-09-19T10:59:04;4.07;;;1.90;;
21215;SDS011;10765;50.954;5.322;2023-09-19T11:01:42;5.40;;;1.90;;
21215;SDS011;10765;50.954;5.322;2023-09-19T11:04:26;5.70;;;1.87;;
21215;SDS011;10765;50.954;5.322;2023-09-19T11:07:04;9.87;;;3.20;;
21215;SDS011;10765;50.954;5.322;2023-09-19T11:09:43;5.60;;;1.93;;
21215;SDS011;10765;50.954;5.322;2023-09-19T11:12:12;5.00;;;1.90;;
21215;SDS011;10765;50.954;5.322;2023-09-19T11:15:01;4.67;;;2.00;;
21215;SDS011;10765;50.954;5.322;2023-09-19T11:17:34;3.70;;;1.83;;
21215;SDS011;10765;50.954;5.322;2023-09-19T11:20:18;5.10;;;1.80;;
21215;SDS011;10765;50.954;5.322;2023-09-19T11:23:22;3.97;;;2.03;;
21215;SDS011;10765;50.954;5.322;2023-09-19T11:25:51;3.43;;;1.60;;
21215;SDS011;10765;50.954;5.322;2023-09-19T11:28:29;3.70;;;1.43;;
21215;SDS011;10765;50.954;5.322;2023-09-19T11:30:57;7.40;;;1.77;;
21215;SDS011;10765;50.954;5.322;2023-09-19T11:33:26;3.97;;;1.33;;
21215;SDS011;10765;50.954;5.322;2023-09-19T11:35:58;4.13;;;1.40;;
21215;SDS011;10765;50.954;5.322;2023-09-19T11:41:39;4.33;;;1.67;;
21215;SDS011;10765;50.954;5.322;2023-09-19T11:47:06;4.20;;;1.57;;
21215;SDS011;10765;50.954;5.322;2023-09-19T11:49:36;2.97;;;1.33;;
21215;SDS011;10765;50.954;5.322;2023-09-19T11:52:06;4.60;;;1.57;;
21215;SDS011;10765;50.954;5.322;2023-09-19T11:54:33;4.33;;;1.20;;
21215;SDS011;10765;50.954;5.322;2023-09-19T11:57:05;3.33;;;1.50;;
21215;SDS011;10765;50.954;5.322;2023-09-19T11:59:34;8.33;;;1.87;;
21215;SDS011;10765;50.954;5.322;2023-09-19T12:02:06;7.07;;;1.80;;
21215;SDS011;10765;50.954;5.322;2023-09-19T12:04:37;4.37;;;1.53;;
21215;SDS011;10765;50.954;5.322;2023-09-19T12:07:06;3.93;;;1.47;;
21215;SDS011;10765;50.954;5.322;2023-09-19T12:09:38;3.67;;;1.33;;
21215;SDS011;10765;50.954;5.322;2023-09-19T12:12:06;3.80;;;1.20;;
21215;SDS011;10765;50.954;5.322;2023-09-19T12:14:34;6.63;;;1.60;;
21215;SDS011;10765;50.954;5.322;2023-09-19T12:17:01;4.00;;;1.47;;
21215;SDS011;10765;50.954;5.322;2023-09-19T12:19:28;4.97;;;1.53;;
21215;SDS011;10765;50.954;5.322;2023-09-19T12:21:59;2.80;;;1.17;;
21215;SDS011;10765;50.954;5.322;2023-09-19T12:24:31;4.53;;;1.67;;
21215;SDS011;10765;50.954;5.322;2023-09-19T12:27:01;4.77;;;1.10;;
21215;SDS011;10765;50.954;5.322;2023-09-19T12:29:30;2.87;;;1.03;;
21215;SDS011;10765;50.954;5.322;2023-09-19T12:31:59;3.13;;;1.10;;
21215;SDS011;10765;50.954;5.322;2023-09-19T12:34:29;2.37;;;0.90;;
21215;SDS011;10765;50.954;5.322;2023-09-19T12:37:08;4.57;;;1.07;;
21215;SDS011;10765;50.954;5.322;2023-09-19T12:39:41;4.03;;;1.23;;
21215;SDS011;10765;50.954;5.322;2023-09-19T12:42:13;4.03;;;1.10;;
21215;SDS011;10765;50.954;5.322;2023-09-19T12:44:42;3.80;;;1.30;;
21215;SDS011;10765;50.954;5.322;2023-09-19T12:47:11;3.87;;;1.07;;
21215;SDS011;10765;50.954;5.322;2023-09-19T12:52:43;2.20;;;0.93;;
21215;SDS011;10765;50.954;5.322;2023-09-19T12:55:20;3.80;;;1.10;;
21215;SDS011;10765;50.954;5.322;2023-09-19T12:57:55;4.27;;;1.20;;
21215;SDS011;10765;50.954;5.322;2023-09-19T13:00:30;6.43;;;1.20;;
21215;SDS011;10765;50.954;5.322;2023-09-19T13:03:16;3.20;;;0.80;;
21215;SDS011;10765;50.954;5.322;2023-09-19T13:05:50;4.37;;;1.23;;
21215;SDS011;10765;50.954;5.322;2023-09-19T13:08:24;4.70;;;0.97;;
21215;SDS011;10765;50.954;5.322;2023-09-19T13:13:46;2.07;;;0.93;;
21215;SDS011;10765;50.954;5.322;2023-09-19T13:16:14;3.37;;;1.20;;
21215;SDS011;10765;50.954;5.322;2023-09-19T13:18:45;3.03;;;1.20;;
21215;SDS011;10765;50.954;5.322;2023-09-19T13:21:15;2.53;;;0.83;;
21215;SDS011;10765;50.954;5.322;2023-09-19T13:23:53;3.57;;;0.83;;
21215;SDS011;10765;50.954;5.322;2023-09-19T13:26:24;3.13;;;0.97;;
21215;SDS011;10765;50.954;5.322;2023-09-19T13:28:53;2.77;;;0.93;;
21215;SDS011;10765;50.954;5.322;2023-09-19T13:31:20;4.30;;;1.23;;
21215;SDS011;10765;50.954;5.322;2023-09-19T13:33:48;1.97;;;1.00;;
21215;SDS011;10765;50.954;5.322;2023-09-19T13:36:15;2.27;;;1.03;;
21215;SDS011;10765;50.954;5.322;2023-09-19T13:38:44;2.57;;;0.90;;
21215;SDS011;10765;50.954;5.322;2023-09-19T13:41:15;3.40;;;1.00;;
21215;SDS011;10765;50.954;5.322;2023-09-19T13:43:42;1.90;;;0.93;;
21215;SDS011;10765;50.954;5.322;2023-09-19T13:46:13;2.30;;;1.00;;
21215;SDS011;10765;50.954;5.322;2023-09-19T13:48:41;3.13;;;0.90;;
21215;SDS011;10765;50.954;5.322;2023-09-19T13:51:08;3.00;;;0.90;;
21215;SDS011;10765;50.954;5.322;2023-09-19T13:53:35;2.80;;;1.03;;
21215;SDS011;10765;50.954;5.322;2023-09-19T13:56:02;3.07;;;1.00;;
21215;SDS011;10765;50.954;5.322;2023-09-19T13:58:31;4.10;;;1.10;;
21215;SDS011;10765;50.954;5.322;2023-09-19T14:00:58;7.83;;;1.33;;
21215;SDS011;10765;50.954;5.322;2023-09-19T14:03:25;4.17;;;1.03;;
21215;SDS011;10765;50.954;5.322;2023-09-19T14:05:53;3.13;;;1.00;;
21215;SDS011;10765;50.954;5.322;2023-09-19T14:08:20;3.03;;;1.00;;
21215;SDS011;10765;50.954;5.322;2023-09-19T14:10:48;2.60;;;1.00;;
21215;SDS011;10765;50.954;5.322;2023-09-19T14:13:15;2.17;;;1.07;;
21215;SDS011;10765;50.954;5.322;2023-09-19T14:15:43;4.50;;;1.20;;
21215;SDS011;10765;50.954;5.322;2023-09-19T14:18:10;3.43;;;1.00;;
21215;SDS011;10765;50.954;5.322;2023-09-19T14:20:37;3.63;;;1.00;;
21215;SDS011;10765;50.954;5.322;2023-09-19T14:23:06;4.13;;;1.33;;
21215;SDS011;10765;50.954;5.322;2023-09-19T14:25:33;5.87;;;1.20;;
21215;SDS011;10765;50.954;5.322;2023-09-19T14:28:01;4.27;;;1.07;;
21215;SDS011;10765;50.954;5.322;2023-09-19T14:30:28;4.50;;;1.07;;
21215;SDS011;10765;50.954;5.322;2023-09-19T14:32:56;5.33;;;1.50;;
21215;SDS011;10765;50.954;5.322;2023-09-19T14:35:24;4.63;;;1.30;;
21215;SDS011;10765;50.954;5.322;2023-09-19T14:37:50;2.80;;;1.10;;
21215;SDS011;10765;50.954;5.322;2023-09-19T14:40:17;3.80;;;0.97;;
21215;SDS011;10765;50.954;5.322;2023-09-19T14:42:44;5.00;;;1.10;;
21215;SDS011;10765;50.954;5.322;2023-09-19T14:45:13;3.47;;;1.27;;
21215;SDS011;10765;50.954;5.322;2023-09-19T14:47:43;3.63;;;1.30;;
21215;SDS011;10765;50.954;5.322;2023-09-19T14:50:11;2.60;;;1.07;;
21215;SDS011;10765;50.954;5.322;2023-09-19T14:52:38;4.03;;;1.30;;
21215;SDS011;10765;50.954;5.322;2023-09-19T14:55:06;1.80;;;0.77;;
21215;SDS011;10765;50.954;5.322;2023-09-19T14:57:39;4.43;;;1.20;;
21215;SDS011;10765;50.954;5.322;2023-09-19T15:00:07;4.13;;;1.30;;
21215;SDS011;10765;50.954;5.322;2023-09-19T15:02:37;3.73;;;1.13;;
21215;SDS011;10765;50.954;5.322;2023-09-19T15:05:05;2.90;;;0.90;;
21215;SDS011;10765;50.954;5.322;2023-09-19T15:07:35;2.90;;;1.00;;
21215;SDS011;10765;50.954;5.322;2023-09-19T15:10:03;3.00;;;0.97;;
21215;SDS011;10765;50.954;5.322;2023-09-19T15:12:32;3.47;;;1.10;;
21215;SDS011;10765;50.954;5.322;2023-09-19T15:15:00;3.60;;;1.20;;
21215;SDS011;10765;50.954;5.322;2023-09-19T15:17:27;6.07;;;1.00;;